createdAt,value
2016-06-08T00:00:33.667Z,1015.33
2016-06-08T00:01:33.484Z,1015.28
2016-06-08T00:02:32.923Z,1015.26
2016-06-08T00:03:33.472Z,1015.27
2016-06-08T00:04:32.913Z,1015.26
2016-06-08T00:05:32.916Z,1015.26
2016-06-08T00:06:32.919Z,1015.24
2016-06-08T00:07:32.905Z,1015.24
2016-06-08T00:08:32.908Z,1015.22
2016-06-08T00:09:32.911Z,1015.19
2016-06-08T00:10:32.897Z,1015.17
2016-06-08T00:11:32.900Z,1015.17
2016-06-08T00:12:32.902Z,1015.18
2016-06-08T00:13:32.890Z,1015.18
2016-06-08T00:14:32.893Z,1015.21
2016-06-08T00:15:32.896Z,1015.21
2016-06-08T00:16:32.883Z,1015.2
2016-06-08T00:17:32.885Z,1015.19
2016-06-08T00:18:32.888Z,1015.19
2016-06-08T00:19:32.875Z,1015.19
2016-06-08T00:20:32.878Z,1015.19
2016-06-08T00:21:32.881Z,1015.18
2016-06-08T00:22:32.884Z,1015.14
2016-06-08T00:23:32.870Z,1015.14
2016-06-08T00:24:32.872Z,1015.12
2016-06-08T00:25:32.876Z,1015.11
2016-06-08T00:26:32.862Z,1015.1
2016-06-08T00:27:32.865Z,1015.11
2016-06-08T00:28:32.867Z,1015.11
2016-06-08T00:29:32.855Z,1015.1
2016-06-08T00:30:32.858Z,1015.08
2016-06-08T00:31:32.861Z,1015.1
2016-06-08T00:32:32.848Z,1015.07
2016-06-08T00:33:32.850Z,1015.08
2016-06-08T00:34:32.853Z,1015.08
2016-06-08T00:35:32.839Z,1015.09
2016-06-08T00:36:32.842Z,1015.1
2016-06-08T00:37:32.845Z,1015.06
2016-06-08T00:38:32.847Z,1015.07
2016-06-08T00:39:32.836Z,1015.09
2016-06-08T00:40:32.838Z,1015.08
2016-06-08T00:41:32.841Z,1015.08
2016-06-08T00:42:32.828Z,1015.05
2016-06-08T00:43:32.830Z,1015.07
2016-06-08T00:44:32.833Z,1015.04
2016-06-08T00:45:32.820Z,1015.03
2016-06-08T00:46:32.823Z,1014.99
2016-06-08T00:47:32.826Z,1015.02
2016-06-08T00:48:32.813Z,1015.01
2016-06-08T00:49:32.815Z,1014.99
2016-06-08T00:50:32.818Z,1015.04
2016-06-08T00:51:32.804Z,1015.02
2016-06-08T00:52:32.807Z,1015
2016-06-08T00:53:32.810Z,1015.04
2016-06-08T00:54:32.797Z,1014.97
2016-06-08T00:55:32.801Z,1015
2016-06-08T00:56:32.803Z,1015
2016-06-08T00:57:32.790Z,1015.01
2016-06-08T00:58:32.793Z,1015
2016-06-08T00:59:32.795Z,1014.98
2016-06-08T01:00:32.782Z,1014.98
2016-06-08T01:01:32.784Z,1014.97
2016-06-08T01:02:32.787Z,1014.94
2016-06-08T01:03:32.775Z,1014.97
2016-06-08T01:04:32.778Z,1014.99
2016-06-08T01:05:32.780Z,1014.9
2016-06-08T01:06:32.767Z,1014.94
2016-06-08T01:07:32.769Z,1014.94
2016-06-08T01:08:32.772Z,1014.91
2016-06-08T01:09:33.744Z,1014.94
2016-06-08T01:10:32.777Z,1014.91
2016-06-08T01:11:33.344Z,1014.94
2016-06-08T01:12:32.752Z,1014.92
2016-06-08T01:13:32.802Z,1014.88
2016-06-08T01:14:32.758Z,1014.86
2016-06-08T01:15:32.744Z,1014.85
2016-06-08T01:16:33.825Z,1014.85
2016-06-08T01:17:32.749Z,1014.85
2016-06-08T01:18:32.737Z,1014.84
2016-06-08T01:19:34.115Z,1014.87
2016-06-08T01:20:33.040Z,1014.9
2016-06-08T01:21:33.229Z,1014.9
2016-06-08T01:22:32.732Z,1014.86
2016-06-08T01:23:32.735Z,1014.89
2016-06-08T01:24:32.721Z,1014.85
2016-06-08T01:25:32.865Z,1014.86
2016-06-08T01:26:32.726Z,1014.86
2016-06-08T01:27:32.715Z,1014.83
2016-06-08T01:28:32.717Z,1014.83
2016-06-08T01:29:32.720Z,1014.8
2016-06-08T01:30:32.707Z,1014.81
2016-06-08T01:31:32.709Z,1014.81
2016-06-08T01:32:32.712Z,1014.8
2016-06-08T01:33:32.699Z,1014.8
2016-06-08T01:34:32.702Z,1014.79
2016-06-08T01:35:32.705Z,1014.77
2016-06-08T01:36:32.692Z,1014.8
2016-06-08T01:37:32.694Z,1014.77
2016-06-08T01:38:32.697Z,1014.8
2016-06-08T01:39:32.683Z,1014.78
2016-06-08T01:40:32.686Z,1014.78
2016-06-08T01:41:32.674Z,1014.74
2016-06-08T01:42:32.676Z,1014.73
2016-06-08T01:43:32.680Z,1014.74
2016-06-08T01:44:32.666Z,1014.72
2016-06-08T01:45:32.685Z,1014.7
2016-06-08T01:46:32.672Z,1014.66
2016-06-08T01:47:32.658Z,1014.67
2016-06-08T01:48:32.661Z,1014.6
2016-06-08T01:49:32.663Z,1014.59
2016-06-08T01:50:32.651Z,1014.59
2016-06-08T01:51:32.654Z,1014.57
2016-06-08T01:52:32.657Z,1014.59
2016-06-08T01:53:32.643Z,1014.55
2016-06-08T01:54:32.646Z,1014.49
2016-06-08T01:55:32.633Z,1014.5
2016-06-08T01:56:32.636Z,1014.47
2016-06-08T01:57:32.639Z,1014.43
2016-06-08T01:58:32.626Z,1014.46
2016-06-08T01:59:32.629Z,1014.45
2016-06-08T02:00:32.631Z,1014.44
2016-06-08T02:01:32.618Z,1014.42
2016-06-08T02:02:32.621Z,1014.42
2016-06-08T02:03:32.623Z,1014.45
2016-06-08T02:04:32.611Z,1014.45
2016-06-08T02:05:32.613Z,1014.47
2016-06-08T02:06:32.616Z,1014.43
2016-06-08T02:07:32.603Z,1014.45
2016-06-08T02:08:32.606Z,1014.43
2016-06-08T02:09:32.592Z,1014.42
2016-06-08T02:10:32.595Z,1014.4
2016-06-08T02:11:32.597Z,1014.42
2016-06-08T02:12:32.586Z,1014.4
2016-06-08T02:13:32.588Z,1014.41
2016-06-08T02:14:32.591Z,1014.4
2016-06-08T02:15:32.578Z,1014.4
2016-06-08T02:16:32.580Z,1014.43
2016-06-08T02:17:32.583Z,1014.43
2016-06-08T02:18:32.571Z,1014.41
2016-06-08T02:19:32.573Z,1014.41
2016-06-08T02:20:32.560Z,1014.37
2016-06-08T02:21:32.562Z,1014.4
2016-06-08T02:22:32.565Z,1014.38
2016-06-08T02:23:32.552Z,1014.36
2016-06-08T02:25:32.557Z,1014.36
2016-06-08T02:26:32.545Z,1014.36
2016-06-08T02:27:32.547Z,1014.33
2016-06-08T02:28:34.159Z,1014.35
2016-06-08T02:29:33.537Z,1014.31
2016-06-08T02:30:32.539Z,1014.34
2016-06-08T02:31:32.887Z,1014.34
2016-06-08T02:32:32.701Z,1014.32
2016-06-08T02:33:32.532Z,1014.33
2016-06-08T02:34:32.535Z,1014.29
2016-06-08T02:35:32.522Z,1014.32
2016-06-08T02:36:33.962Z,1014.31
2016-06-08T02:37:32.512Z,1014.32
2016-06-08T02:38:32.858Z,1014.3
2016-06-08T02:39:32.517Z,1014.32
2016-06-08T02:40:32.505Z,1014.3
2016-06-08T02:41:33.116Z,1014.32
2016-06-08T02:42:32.494Z,1014.33
2016-06-08T02:43:32.496Z,1014.37
2016-06-08T02:44:32.499Z,1014.34
2016-06-08T02:45:32.487Z,1014.38
2016-06-08T02:46:32.488Z,1014.39
2016-06-08T02:47:32.492Z,1014.33
2016-06-08T02:48:32.479Z,1014.33
2016-06-08T02:49:32.482Z,1014.33
2016-06-08T02:50:32.485Z,1014.35
2016-06-08T02:51:32.471Z,1014.34
2016-06-08T02:52:32.474Z,1014.36
2016-06-08T02:53:32.461Z,1014.33
2016-06-08T02:54:32.463Z,1014.3
2016-06-08T02:55:32.466Z,1014.29
2016-06-08T02:56:32.454Z,1014.3
2016-06-08T02:57:32.456Z,1014.28
2016-06-08T02:58:32.459Z,1014.28
2016-06-08T02:59:32.445Z,1014.28
2016-06-08T03:00:32.448Z,1014.28
2016-06-08T03:01:32.437Z,1014.3
2016-06-08T03:02:32.438Z,1014.31
2016-06-08T03:03:32.442Z,1014.35
2016-06-08T03:04:32.428Z,1014.3
2016-06-08T03:05:32.431Z,1014.28
2016-06-08T03:06:32.434Z,1014.3
2016-06-08T03:07:32.436Z,1014.32
2016-06-08T03:08:32.423Z,1014.3
2016-06-08T03:09:32.426Z,1014.31
2016-06-08T03:10:32.413Z,1014.34
2016-06-08T03:11:32.416Z,1014.31
2016-06-08T03:12:32.403Z,1014.33
2016-06-08T03:13:32.405Z,1014.32
2016-06-08T03:14:32.408Z,1014.32
2016-06-08T03:15:32.394Z,1014.37
2016-06-08T03:16:32.397Z,1014.34
2016-06-08T03:17:32.401Z,1014.33
2016-06-08T03:18:32.388Z,1014.32
2016-06-08T03:19:32.391Z,1014.32
2016-06-08T03:20:32.393Z,1014.34
2016-06-08T03:21:32.396Z,1014.36
2016-06-08T03:22:32.382Z,1014.36
2016-06-08T03:23:32.385Z,1014.37
2016-06-08T03:24:32.388Z,1014.42
2016-06-08T03:25:32.376Z,1014.44
2016-06-08T03:26:32.394Z,1014.42
2016-06-08T03:27:32.365Z,1014.42
2016-06-08T03:28:32.368Z,1014.41
2016-06-08T03:29:32.370Z,1014.43
2016-06-08T03:30:32.357Z,1014.44
2016-06-08T03:31:32.359Z,1014.45
2016-06-08T03:32:32.362Z,1014.44
2016-06-08T03:33:32.351Z,1014.44
2016-06-08T03:34:32.353Z,1014.42
2016-06-08T03:35:32.356Z,1014.43
2016-06-08T03:36:32.342Z,1014.43
2016-06-08T03:37:32.345Z,1014.45
2016-06-08T03:38:32.348Z,1014.44
2016-06-08T03:39:32.350Z,1014.44
2016-06-08T03:40:32.337Z,1014.5
2016-06-08T03:41:32.340Z,1014.51
2016-06-08T03:42:32.343Z,1014.51
2016-06-08T03:44:32.348Z,1014.48
2016-06-08T03:45:33.055Z,1014.53
2016-06-08T03:46:33.728Z,1014.44
2016-06-08T03:47:32.340Z,1014.45
2016-06-08T03:48:32.938Z,1014.46
2016-06-08T03:49:32.486Z,1014.43
2016-06-08T03:50:32.349Z,1014.48
2016-06-08T03:51:32.335Z,1014.48
2016-06-08T03:53:32.341Z,1014.48
2016-06-08T03:54:32.344Z,1014.48
2016-06-08T03:55:32.346Z,1014.51
2016-06-08T03:56:32.349Z,1014.5
2016-06-08T03:57:32.351Z,1014.51
2016-06-08T03:58:32.355Z,1014.53
2016-06-08T03:59:32.561Z,1014.54
2016-06-08T04:00:32.360Z,1014.57
2016-06-08T04:01:32.925Z,1014.53
2016-06-08T04:02:32.365Z,1014.56
2016-06-08T04:03:32.368Z,1014.5
2016-06-08T04:04:32.370Z,1014.57
2016-06-08T04:05:32.373Z,1014.51
2016-06-08T04:06:32.376Z,1014.57
2016-06-08T04:07:32.379Z,1014.59
2016-06-08T04:08:32.381Z,1014.6
2016-06-08T04:09:32.384Z,1014.61
2016-06-08T04:10:32.403Z,1014.61
2016-06-08T04:11:32.405Z,1014.61
2016-06-08T04:12:32.939Z,1014.59
2016-06-08T04:13:32.410Z,1014.65
2016-06-08T04:14:32.414Z,1014.7
2016-06-08T04:15:32.432Z,1014.7
2016-06-08T04:16:32.434Z,1014.8
2016-06-08T04:17:32.436Z,1014.86
2016-06-08T04:18:32.439Z,1014.89
2016-06-08T04:19:32.458Z,1014.94
2016-06-08T04:20:32.460Z,1014.96
2016-06-08T04:21:32.479Z,1015
2016-06-08T04:22:32.482Z,1014.98
2016-06-08T04:23:32.485Z,1014.93
2016-06-08T04:24:32.487Z,1014.93
2016-06-08T04:25:32.505Z,1014.92
2016-06-08T04:26:32.508Z,1014.88
2016-06-08T04:27:32.510Z,1014.85
2016-06-08T04:28:32.529Z,1014.86
2016-06-08T04:29:32.531Z,1014.83
2016-06-08T04:30:32.551Z,1014.82
2016-06-08T04:31:32.554Z,1014.81
2016-06-08T04:32:32.571Z,1014.86
2016-06-08T04:33:32.574Z,1014.89
2016-06-08T04:34:32.576Z,1014.88
2016-06-08T04:35:32.595Z,1014.87
2016-06-08T04:36:32.597Z,1014.88
2016-06-08T04:37:32.615Z,1014.9
2016-06-08T04:38:32.634Z,1014.86
2016-06-08T04:39:32.637Z,1014.89
2016-06-08T04:40:32.655Z,1014.88
2016-06-08T04:41:32.658Z,1014.79
2016-06-08T04:42:32.676Z,1014.7
2016-06-08T04:43:32.678Z,1014.68
2016-06-08T04:44:32.697Z,1014.61
2016-06-08T04:45:32.699Z,1014.65
2016-06-08T04:46:32.719Z,1014.61
2016-06-08T04:47:32.722Z,1014.65
2016-06-08T04:48:32.739Z,1014.64
2016-06-08T04:49:32.741Z,1014.65
2016-06-08T04:50:32.760Z,1014.69
2016-06-08T04:51:32.778Z,1014.74
2016-06-08T04:52:32.780Z,1014.72
2016-06-08T04:53:32.800Z,1014.78
2016-06-08T04:54:32.802Z,1014.79
2016-06-08T04:55:32.821Z,1014.77
2016-06-08T04:56:32.823Z,1014.74
2016-06-08T04:57:32.935Z,1014.75
2016-06-08T04:58:32.860Z,1014.73
2016-06-08T04:59:32.862Z,1014.71
2016-06-08T05:00:32.865Z,1014.79
2016-06-08T05:01:32.883Z,1014.83
2016-06-08T05:02:34.089Z,1015.02
2016-06-08T05:03:33.686Z,1015.07
2016-06-08T05:04:32.907Z,1014.83
2016-06-08T05:05:33.473Z,1015.05
2016-06-08T05:06:33.837Z,1014.89
2016-06-08T05:07:32.944Z,1015.03
2016-06-08T05:08:32.973Z,1015.09
2016-06-08T05:09:33.439Z,1015.17
2016-06-08T05:10:33.015Z,1015.17
2016-06-08T05:12:33.048Z,1015.24
2016-06-08T05:13:33.054Z,1015.28
2016-06-08T05:14:33.076Z,1015.28
2016-06-08T05:15:33.082Z,1015.33
2016-06-08T05:16:33.354Z,1015.31
2016-06-08T05:17:33.108Z,1015.35
2016-06-08T05:18:33.628Z,1015.5
2016-06-08T05:19:33.147Z,1015.54
2016-06-08T05:20:33.151Z,1015.61
2016-06-08T05:21:33.155Z,1015.66
2016-06-08T05:22:33.173Z,1015.67
2016-06-08T05:23:33.192Z,1015.71
2016-06-08T05:24:33.195Z,1015.7
2016-06-08T05:25:33.214Z,1015.71
2016-06-08T05:26:33.233Z,1015.69
2016-06-08T05:27:33.236Z,1015.69
2016-06-08T05:28:33.254Z,1015.66
2016-06-08T05:29:33.273Z,1015.69
2016-06-08T05:30:33.276Z,1015.61
2016-06-08T05:31:33.295Z,1015.68
2016-06-08T05:32:33.313Z,1015.78
2016-06-08T05:33:33.316Z,1015.84
2016-06-08T05:34:33.334Z,1015.91
2016-06-08T05:35:33.352Z,1015.89
2016-06-08T05:36:33.370Z,1015.92
2016-06-08T05:37:33.374Z,1015.95
2016-06-08T05:38:33.392Z,1016
2016-06-08T05:39:33.425Z,1016.11
2016-06-08T05:40:33.429Z,1016.16
2016-06-08T05:41:33.447Z,1016.2
2016-06-08T05:42:33.465Z,1016.24
2016-06-08T05:43:33.467Z,1016.27
2016-06-08T05:44:33.486Z,1016.3
2016-06-08T05:45:33.504Z,1016.3
2016-06-08T05:46:33.523Z,1016.17
2016-06-08T05:47:33.541Z,1016.24
2016-06-08T05:48:33.559Z,1016.29
2016-06-08T05:49:33.578Z,1016.33
2016-06-08T05:50:33.580Z,1016.52
2016-06-08T05:51:33.614Z,1016.53
2016-06-08T05:52:33.617Z,1016.48
2016-06-08T05:53:33.635Z,1016.46
2016-06-08T05:54:33.653Z,1016.37
2016-06-08T05:55:33.671Z,1016.35
2016-06-08T05:56:33.691Z,1016.34
2016-06-08T05:57:33.708Z,1016.37
2016-06-08T05:58:34.258Z,1016.4
2016-06-08T05:59:33.745Z,1016.45
2016-06-08T06:00:33.763Z,1016.48
2016-06-08T06:01:33.782Z,1016.48
2016-06-08T06:02:33.799Z,1016.48
2016-06-08T06:03:33.818Z,1016.52
2016-06-08T06:04:33.836Z,1016.51
2016-06-08T06:05:33.855Z,1016.48
2016-06-08T06:06:33.874Z,1016.38
2016-06-08T06:07:33.892Z,1016.25
2016-06-08T06:08:33.909Z,1016.18
2016-06-08T06:09:33.928Z,1016.13
2016-06-08T06:10:33.946Z,1016.11
2016-06-08T06:11:33.964Z,1016.04
2016-06-08T06:12:33.983Z,1016.01
2016-06-08T06:13:34.001Z,1016.04
2016-06-08T06:14:34.020Z,1015.99
2016-06-08T06:15:34.039Z,1015.91
2016-06-08T06:16:34.056Z,1015.84
2016-06-08T06:17:34.075Z,1015.87
2016-06-08T06:18:34.108Z,1015.81
2016-06-08T06:19:34.111Z,1015.79
2016-06-08T06:20:34.130Z,1015.74
2016-06-08T06:21:34.272Z,1015.67
2016-06-08T06:22:34.166Z,1015.64
2016-06-08T06:23:34.497Z,1015.61
2016-06-08T06:24:36.047Z,1015.62
2016-06-08T06:25:34.330Z,1015.59
2016-06-08T06:26:34.396Z,1015.58
2016-06-08T06:27:34.274Z,1015.57
2016-06-08T06:28:34.698Z,1015.53
2016-06-08T06:29:34.310Z,1015.47
2016-06-08T06:30:34.328Z,1015.41
2016-06-08T06:31:35.862Z,1015.36
2016-06-08T06:32:35.069Z,1015.42
2016-06-08T06:33:34.774Z,1015.4
2016-06-08T06:34:34.417Z,1015.42
2016-06-08T06:35:34.436Z,1015.39
2016-06-08T06:36:34.454Z,1015.39
2016-06-08T06:37:34.473Z,1015.39
2016-06-08T06:38:34.490Z,1015.37
2016-06-08T06:39:34.509Z,1015.39
2016-06-08T06:40:34.527Z,1015.4
2016-06-08T06:41:34.561Z,1015.37
2016-06-08T06:42:34.579Z,1015.4
2016-06-08T06:43:34.895Z,1015.37
2016-06-08T06:44:34.617Z,1015.37
2016-06-08T06:45:34.634Z,1015.33
2016-06-08T06:46:34.668Z,1015.33
2016-06-08T06:47:34.687Z,1015.3
2016-06-08T06:48:34.705Z,1015.33
2016-06-08T06:49:34.723Z,1015.34
2016-06-08T06:50:34.741Z,1015.34
2016-06-08T06:51:34.775Z,1015.32
2016-06-08T06:52:34.809Z,1015.31
2016-06-08T06:53:34.812Z,1015.3
2016-06-08T06:54:34.831Z,1015.32
2016-06-08T06:55:34.864Z,1015.36
2016-06-08T06:56:34.883Z,1015.37
2016-06-08T06:57:34.901Z,1015.38
2016-06-08T06:58:35.107Z,1015.4
2016-06-08T06:59:34.953Z,1015.42
2016-06-08T07:00:34.971Z,1015.39
2016-06-08T07:01:34.990Z,1015.4
2016-06-08T07:02:35.024Z,1015.43
2016-06-08T07:03:35.043Z,1015.38
2016-06-08T07:04:35.061Z,1015.43
2016-06-08T07:05:35.078Z,1015.42
2016-06-08T07:06:35.113Z,1015.43
2016-06-08T07:07:35.132Z,1015.44
2016-06-08T07:08:35.165Z,1015.46
2016-06-08T07:09:35.184Z,1015.49
2016-06-08T07:10:35.201Z,1015.48
2016-06-08T07:11:35.220Z,1015.52
2016-06-08T07:12:35.254Z,1015.5
2016-06-08T07:13:35.490Z,1015.51
2016-06-08T07:14:35.290Z,1015.49
2016-06-08T07:15:35.324Z,1015.47
2016-06-08T07:16:35.342Z,1015.44
2016-06-08T07:17:35.362Z,1015.42
2016-06-08T07:18:35.395Z,1015.48
2016-06-08T07:19:35.404Z,1015.5
2016-06-08T07:20:35.435Z,1015.53
2016-06-08T07:21:35.471Z,1015.64
2016-06-08T07:22:35.479Z,1015.64
2016-06-08T07:23:35.500Z,1015.62
2016-06-08T07:24:35.513Z,1015.58
2016-06-08T07:25:35.562Z,1015.58
2016-06-08T07:26:35.581Z,1015.58
2016-06-08T07:27:35.600Z,1015.63
2016-06-08T07:28:35.634Z,1015.59
2016-06-08T07:29:35.652Z,1015.66
2016-06-08T07:30:35.670Z,1015.66
2016-06-08T07:31:35.703Z,1015.66
2016-06-08T07:32:35.722Z,1015.68
2016-06-08T07:33:35.741Z,1015.67
2016-06-08T07:34:35.775Z,1015.67
2016-06-08T07:35:35.798Z,1015.7
2016-06-08T07:36:35.817Z,1015.67
2016-06-08T07:37:35.851Z,1015.67
2016-06-08T07:38:35.870Z,1015.64
2016-06-08T07:39:37.122Z,1015.66
2016-06-08T07:40:37.297Z,1015.66
2016-06-08T07:41:35.945Z,1015.62
2016-06-08T07:42:35.963Z,1015.6
2016-06-08T07:43:35.982Z,1015.57
2016-06-08T07:44:36.156Z,1015.61
2016-06-08T07:45:36.033Z,1015.55
2016-06-08T07:46:36.052Z,1015.57
2016-06-08T07:47:36.085Z,1015.63
2016-06-08T07:48:36.104Z,1015.59
2016-06-08T07:49:36.138Z,1015.61
2016-06-08T07:50:36.157Z,1015.53
2016-06-08T07:51:37.482Z,1015.51
2016-06-08T07:52:36.204Z,1015.46
2016-06-08T07:53:36.926Z,1015.47
2016-06-08T07:54:37.021Z,1015.46
2016-06-08T07:55:36.634Z,1015.47
2016-06-08T07:56:36.295Z,1015.54
2016-06-08T07:57:36.328Z,1015.47
2016-06-08T07:58:36.737Z,1015.45
2016-06-08T07:59:36.381Z,1015.46
2016-06-08T08:00:36.399Z,1015.74
2016-06-08T08:01:36.417Z,1015.66
2016-06-08T08:02:36.451Z,1015.78
2016-06-08T08:03:36.470Z,1015.89
2016-06-08T08:04:36.503Z,1015.95
2016-06-08T08:05:36.522Z,1015.95
2016-06-08T08:06:36.541Z,1016.05
2016-06-08T08:07:36.575Z,1016.03
2016-06-08T08:08:36.593Z,1016.03
2016-06-08T08:09:36.642Z,1016.07
2016-06-08T08:10:36.645Z,1015.95
2016-06-08T08:11:36.666Z,1015.78
2016-06-08T08:12:36.700Z,1015.57
2016-06-08T08:13:36.719Z,1015.57
2016-06-08T08:14:36.744Z,1015.54
2016-06-08T08:15:36.763Z,1015.51
2016-06-08T08:16:36.796Z,1015.41
2016-06-08T08:17:36.815Z,1015.41
2016-06-08T08:18:36.833Z,1015.32
2016-06-08T08:19:36.868Z,1015.17
2016-06-08T08:20:36.885Z,1015.12
2016-06-08T08:21:36.919Z,1015.16
2016-06-08T08:22:36.937Z,1015.1
2016-06-08T08:23:36.957Z,1014.96
2016-06-08T08:24:36.991Z,1014.83
2016-06-08T08:25:37.008Z,1014.74
2016-06-08T08:26:37.043Z,1014.69
2016-06-08T08:27:37.060Z,1014.59
2016-06-08T08:28:38.188Z,1014.54
2016-06-08T08:29:37.113Z,1014.45
2016-06-08T08:30:37.131Z,1014.39
2016-06-08T08:31:37.150Z,1014.34
2016-06-08T08:32:37.183Z,1014.36
2016-06-08T08:33:37.201Z,1014.33
2016-06-08T08:34:37.236Z,1014.19
2016-06-08T08:35:37.253Z,1014.23
2016-06-08T08:36:37.272Z,1014.2
2016-06-08T08:37:37.306Z,1014.15
2016-06-08T08:38:37.325Z,1014.16
2016-06-08T08:39:37.343Z,1014.13
2016-06-08T08:40:37.361Z,1014.14
2016-06-08T08:41:37.395Z,1014.1
2016-06-08T08:42:37.414Z,1014.14
2016-06-08T08:43:37.433Z,1014.15
2016-06-08T08:44:37.450Z,1014.16
2016-06-08T08:45:37.484Z,1014.19
2016-06-08T08:46:37.502Z,1014.17
2016-06-08T08:47:37.521Z,1014.19
2016-06-08T08:48:37.554Z,1014.21
2016-06-08T08:49:37.573Z,1014.23
2016-06-08T08:50:37.591Z,1014.23
2016-06-08T08:51:37.609Z,1014.07
2016-06-08T08:52:37.627Z,1013.66
2016-06-08T08:53:37.834Z,1013.51
2016-06-08T08:54:37.679Z,1013.45
2016-06-08T08:55:37.698Z,1013.4
2016-06-08T08:56:37.717Z,1013.45
2016-06-08T08:57:38.595Z,1013.4
2016-06-08T08:58:37.785Z,1013.34
2016-06-08T08:59:39.210Z,1013.35
2016-06-08T09:00:37.805Z,1013.36
2016-06-08T09:01:38.465Z,1013.36
2016-06-08T09:02:37.843Z,1013.3
2016-06-08T09:03:37.861Z,1013.35
2016-06-08T09:04:37.879Z,1013.33
2016-06-08T09:05:38.397Z,1013.35
2016-06-08T09:06:37.900Z,1013.34
2016-06-08T09:07:38.012Z,1013.28
2016-06-08T09:08:37.936Z,1013.28
2016-06-08T09:09:39.158Z,1013.32
2016-06-08T09:10:37.973Z,1013.24
2016-06-08T09:11:37.991Z,1013.25
2016-06-08T09:12:38.635Z,1013.24
2016-06-08T09:13:38.013Z,1013.27
2016-06-08T09:14:38.031Z,1013.27
2016-06-08T09:15:38.049Z,1013.23
2016-06-08T09:16:38.052Z,1013.3
2016-06-08T09:17:38.070Z,1013.22
2016-06-08T09:18:38.072Z,1013.23
2016-06-08T09:19:38.091Z,1013.23
2016-06-08T09:20:38.110Z,1013.26
2016-06-08T09:21:38.113Z,1013.24
2016-06-08T09:22:38.130Z,1013.2
2016-06-08T09:23:38.149Z,1013.24
2016-06-08T09:24:38.151Z,1013.25
2016-06-08T09:25:38.170Z,1013.22
2016-06-08T09:26:38.173Z,1013.25
2016-06-08T09:27:38.191Z,1013.2
2016-06-08T09:28:38.209Z,1013.17
2016-06-08T09:29:38.211Z,1013.15
2016-06-08T09:30:38.230Z,1013.18
2016-06-08T09:31:38.232Z,1013.13
2016-06-08T09:32:38.251Z,1013.12
2016-06-08T09:33:38.253Z,1013.15
2016-06-08T09:34:38.272Z,1013.1
2016-06-08T09:35:38.275Z,1013.16
2016-06-08T09:36:38.292Z,1013.08
2016-06-08T09:37:38.295Z,1013.1
2016-06-08T09:38:38.314Z,1013.07
2016-06-08T09:39:38.317Z,1013.04
2016-06-08T09:40:38.320Z,1013.07
2016-06-08T09:41:38.338Z,1013.11
2016-06-08T09:42:38.341Z,1013.06
2016-06-08T09:43:38.359Z,1013.07
2016-06-08T09:44:38.362Z,1013.04
2016-06-08T09:45:38.380Z,1013
2016-06-08T09:46:38.383Z,1012.98
2016-06-08T09:47:38.400Z,1012.99
2016-06-08T09:48:38.403Z,1013
2016-06-08T09:49:38.406Z,1012.97
2016-06-08T09:50:38.424Z,1013.01
2016-06-08T09:51:38.427Z,1013.01
2016-06-08T09:52:38.445Z,1013
2016-06-08T09:53:38.449Z,1012.96
2016-06-08T09:54:38.451Z,1012.95
2016-06-08T09:55:38.469Z,1012.91
2016-06-08T09:56:38.471Z,1012.89
2016-06-08T09:57:38.490Z,1012.85
2016-06-08T09:58:38.493Z,1012.83
2016-06-08T09:59:38.495Z,1012.79
2016-06-08T10:00:38.514Z,1012.83
2016-06-08T10:01:38.532Z,1012.82
2016-06-08T10:02:38.535Z,1012.78
2016-06-08T10:03:38.537Z,1012.77
2016-06-08T10:04:38.540Z,1012.65
2016-06-08T10:05:38.559Z,1012.7
2016-06-08T10:06:38.577Z,1012.76
2016-06-08T10:07:38.580Z,1012.71
2016-06-08T10:08:38.581Z,1012.74
2016-06-08T10:09:38.601Z,1012.73
2016-06-08T10:10:38.603Z,1012.7
2016-06-08T10:11:38.606Z,1012.66
2016-06-08T10:12:38.609Z,1012.66
2016-06-08T10:13:38.627Z,1012.67
2016-06-08T10:14:38.645Z,1012.64
2016-06-08T10:15:38.648Z,1012.65
2016-06-08T10:16:38.651Z,1012.7
2016-06-08T10:17:38.669Z,1012.68
2016-06-08T10:18:38.671Z,1012.61
2016-06-08T10:19:39.908Z,1012.6
2016-06-08T10:20:38.693Z,1012.55
2016-06-08T10:21:39.149Z,1012.56
2016-06-08T10:22:38.698Z,1012.54
2016-06-08T10:23:38.763Z,1012.53
2016-06-08T10:24:38.734Z,1012.49
2016-06-08T10:26:38.740Z,1012.52
2016-06-08T10:27:39.977Z,1012.54
2016-06-08T10:28:39.824Z,1012.59
2016-06-08T10:29:38.763Z,1012.55
2016-06-08T10:30:38.782Z,1012.51
2016-06-08T10:31:38.784Z,1012.51
2016-06-08T10:32:38.788Z,1012.49
2016-06-08T10:33:38.790Z,1012.57
2016-06-08T10:34:38.809Z,1012.56
2016-06-08T10:35:38.811Z,1012.51
2016-06-08T10:36:38.829Z,1012.47
2016-06-08T10:37:38.832Z,1012.49
2016-06-08T10:38:38.835Z,1012.47
2016-06-08T10:39:38.853Z,1012.42
2016-06-08T10:40:38.872Z,1012.46
2016-06-08T10:41:38.875Z,1012.46
2016-06-08T10:42:38.877Z,1012.41
2016-06-08T10:43:38.880Z,1012.44
2016-06-08T10:44:38.898Z,1012.49
2016-06-08T10:45:38.900Z,1012.44
2016-06-08T10:46:38.919Z,1012.43
2016-06-08T10:47:38.921Z,1012.44
2016-06-08T10:48:38.939Z,1012.38
2016-06-08T10:49:38.942Z,1012.4
2016-06-08T10:50:38.945Z,1012.36
2016-06-08T10:51:38.947Z,1012.3
2016-06-08T10:52:38.982Z,1012.37
2016-06-08T10:53:38.985Z,1012.39
2016-06-08T10:54:38.972Z,1012.3
2016-06-08T10:55:38.990Z,1012.32
2016-06-08T10:56:38.992Z,1012.29
2016-06-08T10:57:38.995Z,1012.29
2016-06-08T10:58:39.013Z,1012.24
2016-06-08T10:59:39.188Z,1012.3
2016-06-08T11:00:39.019Z,1012.27
2016-06-08T11:01:39.038Z,1012.25
2016-06-08T11:02:39.056Z,1012.24
2016-06-08T11:03:39.059Z,1012.2
2016-06-08T11:04:39.061Z,1012.16
2016-06-08T11:05:39.064Z,1012.14
2016-06-08T11:06:39.082Z,1012.13
2016-06-08T11:07:39.085Z,1012.14
2016-06-08T11:08:39.087Z,1012.07
2016-06-08T11:09:39.106Z,1012.11
2016-06-08T11:10:39.108Z,1012.07
2016-06-08T11:11:39.126Z,1012.04
2016-06-08T11:12:39.129Z,1012.02
2016-06-08T11:13:39.131Z,1012.06
2016-06-08T11:14:39.697Z,1012.07
2016-06-08T11:15:39.153Z,1012.02
2016-06-08T11:16:39.155Z,1012.08
2016-06-08T11:17:39.174Z,1012.11
2016-06-08T11:18:39.177Z,1012.12
2016-06-08T11:19:39.179Z,1012.18
2016-06-08T11:20:39.198Z,1012.07
2016-06-08T11:21:39.201Z,1012.04
2016-06-08T11:22:39.202Z,1011.99
2016-06-08T11:23:39.222Z,1011.97
2016-06-08T11:24:39.224Z,1011.96
2016-06-08T11:25:39.227Z,1011.96
2016-06-08T11:26:39.246Z,1011.94
2016-06-08T11:27:39.248Z,1012
2016-06-08T11:28:39.266Z,1012.01
2016-06-08T11:29:39.269Z,1012.01
2016-06-08T11:30:39.287Z,1011.88
2016-06-08T11:31:39.290Z,1011.99
2016-06-08T11:32:39.293Z,1012.03
2016-06-08T11:33:39.295Z,1011.98
2016-06-08T11:34:39.845Z,1011.98
2016-06-08T11:35:39.316Z,1011.99
2016-06-08T11:36:39.318Z,1012
2016-06-08T11:37:39.337Z,1011.85
2016-06-08T11:39:39.951Z,1011.84
2016-06-08T11:41:39.364Z,1011.89
2016-06-08T11:42:39.382Z,1011.83
2016-06-08T11:43:39.384Z,1011.88
2016-06-08T11:44:39.653Z,1011.74
2016-06-08T11:45:39.640Z,1011.68
2016-06-08T11:46:39.409Z,1011.78
2016-06-08T11:47:39.817Z,1011.75
2016-06-08T11:48:39.992Z,1011.69
2016-06-08T11:49:39.432Z,1011.76
2016-06-08T11:50:39.450Z,1011.77
2016-06-08T11:51:39.578Z,1011.78
2016-06-08T11:52:39.471Z,1011.77
2016-06-08T11:53:39.474Z,1011.75
2016-06-08T11:54:39.477Z,1011.73
2016-06-08T11:55:39.494Z,1011.7
2016-06-08T11:56:39.498Z,1011.66
2016-06-08T11:57:39.500Z,1011.67
2016-06-08T11:58:39.518Z,1011.63
2016-06-08T11:59:39.552Z,1011.65
2016-06-08T12:00:39.524Z,1011.59
2016-06-08T12:01:39.542Z,1011.57
2016-06-08T12:02:39.546Z,1011.62
2016-06-08T12:03:39.563Z,1011.65
2016-06-08T12:04:39.565Z,1011.64
2016-06-08T12:05:39.585Z,1011.63
2016-06-08T12:06:39.587Z,1011.64
2016-06-08T12:07:39.590Z,1011.64
2016-06-08T12:08:39.609Z,1011.63
2016-06-08T12:09:39.611Z,1011.52
2016-06-08T12:10:39.614Z,1011.48
2016-06-08T12:11:39.632Z,1011.46
2016-06-08T12:12:39.634Z,1011.53
2016-06-08T12:13:39.653Z,1011.51
2016-06-08T12:14:39.656Z,1011.52
2016-06-08T12:15:39.658Z,1011.46
2016-06-08T12:16:39.661Z,1011.41